Time;durP1;ratioP1;P1;durP2;ratioP2;P2;SDS_P1;SDS_P2;PMS_P1;PMS_P2;Temp;Humidity;BMP_temperature;BMP_pressure;BME280_temperature;BME280_humidity;BME280_pressure;Samples;Min_cycle;Max_cycle;Signal;HPM_P1;HPM_P2
2023/04/21 00:00:54;;;;;;;556.93;134.33;;;;;;;-145.45;100.00;64080.75;5095175;28;20365;-81
2023/04/21 00:03:22;;;;;;;549.15;132.55;;;;;;;-145.45;100.00;64080.75;5096199;28;20857;-81
2023/04/21 00:05:48;;;;;;;553.15;133.63;;;;;;;-145.45;100.00;64080.75;5096410;28;20435;-81
2023/04/21 00:08:14;;;;;;;537.15;130.13;;;;;;;-145.45;100.00;64080.75;5095425;28;20866;-81
2023/04/21 00:10:40;;;;;;;539.37;131.23;;;;;;;-145.45;100.00;64080.75;5102815;28;20421;-82
2023/04/21 00:13:06;;;;;;;544.10;131.90;;;;;;;-145.45;100.00;64080.75;5103870;28;20907;-82
2023/04/21 00:15:31;;;;;;;529.72;128.85;;;;;;;-145.45;100.00;64080.75;5099991;28;20365;-82
2023/04/21 00:17:57;;;;;;;579.97;139.25;;;;;;;-145.45;100.00;64080.75;5100474;28;20382;-82
2023/04/21 00:20:25;;;;;;;601.42;143.95;;;;;;;-145.45;100.00;64080.75;5098477;28;20436;-82
2023/04/21 00:22:58;;;;;;;613.72;145.88;;;;;;;-145.45;100.00;64080.75;5097456;28;20393;-82
2023/04/21 00:25:24;;;;;;;614.22;145.82;;;;;;;-145.45;100.00;64080.75;5098922;28;20366;-81
2023/04/21 00:27:50;;;;;;;611.58;145.85;;;;;;;-145.45;100.00;64080.75;5100853;28;20374;-81
2023/04/21 00:30:16;;;;;;;609.38;145.15;;;;;;;-145.45;100.00;64080.75;5104794;28;20404;-82
2023/04/21 00:32:42;;;;;;;609.42;145.70;;;;;;;-145.45;100.00;64080.75;5099108;28;20487;-80
2023/04/21 00:35:08;;;;;;;645.90;152.38;;;;;;;-145.45;100.00;64080.75;5098701;28;20384;-81
2023/04/21 00:37:33;;;;;;;719.10;169.07;;;;;;;-145.45;100.00;64080.75;5097815;28;20377;-82
2023/04/21 00:39:59;;;;;;;693.97;162.23;;;;;;;-145.45;100.00;64080.75;5096614;28;20373;-82
2023/04/21 00:42:25;;;;;;;768.60;183.07;;;;;;;-145.45;100.00;64080.75;5098618;28;20461;-81
2023/04/21 00:44:54;;;;;;;800.65;191.63;;;;;;;-145.45;100.00;64080.75;5099059;28;20373;-82
2023/04/21 00:47:19;;;;;;;784.38;187.55;;;;;;;-145.45;100.00;64080.75;5099177;28;20369;-82
2023/04/21 00:49:46;;;;;;;750.80;176.82;;;;;;;-145.45;100.00;64080.75;5098315;28;20432;-82
2023/04/21 00:52:13;;;;;;;631.65;149.65;;;;;;;-145.45;100.00;64080.75;5096786;28;20441;-82
2023/04/21 00:54:38;;;;;;;628.30;148.40;;;;;;;-145.45;100.00;64080.75;5097691;28;20380;-81
2023/04/21 00:57:06;;;;;;;633.47;149.37;;;;;;;-145.45;100.00;64080.75;5098703;28;20381;-81
2023/04/21 00:59:32;;;;;;;659.83;154.70;;;;;;;-145.45;100.00;64080.75;5100256;28;20365;-80
2023/04/21 01:01:58;;;;;;;637.20;150.33;;;;;;;-145.45;100.00;64080.75;5099091;28;20402;-80
2023/04/21 01:04:23;;;;;;;609.15;145.20;;;;;;;-145.45;100.00;64080.75;5099147;28;20438;-82
2023/04/21 01:06:49;;;;;;;604.67;144.10;;;;;;;-145.45;100.00;64080.75;5100147;28;20389;-81
2023/04/21 01:09:15;;;;;;;608.15;145.05;;;;;;;-145.45;100.00;64080.75;5099189;28;20884;-81
2023/04/21 01:11:40;;;;;;;588.63;141.10;;;;;;;-145.45;100.00;64080.75;5100142;28;20430;-80
2023/04/21 01:14:06;;;;;;;561.90;135.73;;;;;;;-145.45;100.00;64080.75;5100786;28;20373;-82
2023/04/21 01:16:32;;;;;;;535.78;130.27;;;;;;;-145.45;100.00;64080.75;5101886;28;20423;-82
2023/04/21 01:18:59;;;;;;;577.05;138.32;;;;;;;-145.45;100.00;64080.75;5099421;28;20369;-82
2023/04/21 01:21:26;;;;;;;589.38;140.80;;;;;;;-145.45;100.00;64080.75;5101704;28;20388;-82
2023/04/21 01:23:52;;;;;;;585.38;140.30;;;;;;;-145.45;100.00;64080.75;5100693;28;20374;-82
2023/04/21 01:26:20;;;;;;;579.85;139.57;;;;;;;-145.45;100.00;64080.75;5100559;28;20373;-81
2023/04/21 01:28:47;;;;;;;583.42;140.07;;;;;;;-145.45;100.00;64080.75;5099434;28;20441;-82
2023/04/21 01:31:13;;;;;;;592.78;141.82;;;;;;;-145.45;100.00;64080.75;5101171;28;20440;-81
2023/04/21 01:33:39;;;;;;;598.75;142.60;;;;;;;-145.45;100.00;64080.75;5099953;28;20467;-81
2023/04/21 01:36:04;;;;;;;594.00;141.50;;;;;;;-145.45;100.00;64080.75;5099898;28;20387;-82
2023/04/21 01:38:30;;;;;;;586.33;139.87;;;;;;;-145.45;100.00;64080.75;5099121;28;20400;-82
2023/04/21 01:40:55;;;;;;;590.53;141.57;;;;;;;-145.45;100.00;64080.75;5099261;28;20372;-81
2023/04/21 01:43:24;;;;;;;853.33;214.80;;;;;;;-145.45;100.00;64080.75;5098589;28;20411;-81
2023/04/21 01:45:49;;;;;;;770.42;185.98;;;;;;;-145.45;100.00;64080.75;5098419;28;20373;-81
2023/04/21 01:48:15;;;;;;;684.92;161.70;;;;;;;-145.45;100.00;64080.75;5098911;28;20443;-80
2023/04/21 01:50:41;;;;;;;613.83;145.90;;;;;;;-145.45;100.00;64080.75;5097593;28;20409;-81
2023/04/21 01:53:06;;;;;;;567.90;136.87;;;;;;;-145.45;100.00;64080.75;5097260;28;20389;-81
2023/04/21 01:55:32;;;;;;;536.03;130.60;;;;;;;-145.45;100.00;64080.75;5097835;28;20456;-81
2023/04/21 01:57:58;;;;;;;625.67;150.05;;;;;;;-145.45;100.00;64080.75;5096341;28;20382;-81
2023/04/21 02:00:25;;;;;;;733.70;173.90;;;;;;;-145.45;100.00;64080.75;5110629;28;20361;-81
2023/04/21 02:02:51;;;;;;;712.97;168.50;;;;;;;-145.45;100.00;64080.75;5104121;28;20849;-81
2023/04/21 02:05:16;;;;;;;715.45;168.93;;;;;;;-145.45;100.00;64080.75;5099596;28;20376;-81
2023/04/21 02:07:42;;;;;;;709.33;167.55;;;;;;;-145.45;100.00;64080.75;5099992;28;20373;-81
2023/04/21 02:10:07;;;;;;;711.67;167.50;;;;;;;-145.45;100.00;64080.75;5099700;28;20450;-82
2023/04/21 02:12:33;;;;;;;713.97;168.68;;;;;;;-145.45;100.00;64080.75;5097959;28;20385;-81
2023/04/21 02:14:58;;;;;;;716.75;169.25;;;;;;;-145.45;100.00;64080.75;5094441;28;20420;-81
2023/04/21 02:17:24;;;;;;;705.53;165.70;;;;;;;-145.45;100.00;64080.75;5089817;28;20394;-81
2023/04/21 02:19:49;;;;;;;701.83;164.67;;;;;;;-145.45;100.00;64080.75;5098225;28;20508;-82
2023/04/21 02:22:15;;;;;;;706.47;165.43;;;;;;;-145.45;100.00;64080.75;5099962;28;20424;-81
2023/04/21 02:24:40;;;;;;;705.77;165.87;;;;;;;-145.45;100.00;64080.75;5106134;28;20402;-81
2023/04/21 02:27:06;;;;;;;715.45;168.30;;;;;;;-145.45;100.00;64080.75;5095342;28;20388;-82
2023/04/21 02:29:31;;;;;;;719.47;169.60;;;;;;;-145.45;100.00;64080.75;5084166;28;20479;-80
2023/04/21 02:31:57;;;;;;;718.90;170.30;;;;;;;-145.45;100.00;64080.75;5083255;28;20867;-80
2023/04/21 02:34:22;;;;;;;723.85;170.85;;;;;;;-145.45;100.00;64080.75;5077530;28;20470;-82
2023/04/21 02:36:47;;;;;;;725.03;170.93;;;;;;;-145.45;100.00;64080.75;5082329;28;20398;-80
2023/04/21 02:39:13;;;;;;;726.53;171.02;;;;;;;-145.45;100.00;64080.75;5079085;28;20427;-81
2023/04/21 02:41:38;;;;;;;730.90;172.93;;;;;;;-145.45;100.00;64080.75;5087690;28;20381;-81
2023/04/21 02:44:04;;;;;;;724.10;170.50;;;;;;;-145.45;100.00;64080.75;5080126;28;20394;-81
2023/04/21 02:46:30;;;;;;;723.47;170.65;;;;;;;-145.45;100.00;64080.75;5082063;28;20479;-81
2023/04/21 02:48:55;;;;;;;718.22;168.70;;;;;;;-145.45;100.00;64080.75;5072081;28;20457;-80
2023/04/21 02:51:21;;;;;;;721.27;170.83;;;;;;;-145.45;100.00;64080.75;5081497;28;20945;-80
2023/04/21 02:53:47;;;;;;;723.57;171.20;;;;;;;-145.45;100.00;64080.75;5073658;28;20816;-82
2023/04/21 02:56:12;;;;;;;719.13;171.10;;;;;;;-145.45;100.00;64080.75;5074631;28;20464;-81
2023/04/21 02:58:38;;;;;;;721.42;170.50;;;;;;;-145.45;100.00;64080.75;5075302;28;20393;-81
2023/04/21 03:01:04;;;;;;;725.95;172.25;;;;;;;-145.45;100.00;64080.75;5073170;28;20396;-82
2023/04/21 03:03:31;;;;;;;716.13;170.18;;;;;;;-145.45;100.00;64080.75;5084673;28;20397;-82
2023/04/21 03:06:02;;;;;;;711.17;168.33;;;;;;;-145.45;100.00;64080.75;5075004;28;20413;-81
2023/04/21 03:08:28;;;;;;;714.45;169.48;;;;;;;-145.45;100.00;64080.75;5071733;28;20387;-81
2023/04/21 03:10:54;;;;;;;718.25;170.45;;;;;;;-145.45;100.00;64080.75;5081349;28;20744;-80
2023/04/21 03:13:19;;;;;;;717.17;170.50;;;;;;;-145.45;100.00;64080.75;5071762;28;20394;-80
2023/04/21 03:15:45;;;;;;;729.58;173.27;;;;;;;-145.45;100.00;64080.75;5081066;28;20379;-81
2023/04/21 03:18:11;;;;;;;726.78;172.95;;;;;;;-145.45;100.00;64080.75;5073107;28;20406;-80
2023/04/21 03:20:36;;;;;;;717.83;170.17;;;;;;;-145.45;100.00;64080.75;5080239;28;20385;-80
2023/04/21 03:23:02;;;;;;;724.53;172.03;;;;;;;-145.45;100.00;64080.75;5084526;28;20915;-80
2023/04/21 03:25:28;;;;;;;728.47;172.73;;;;;;;-145.45;100.00;64080.75;5087673;28;20403;-81
2023/04/21 03:27:54;;;;;;;721.88;171.65;;;;;;;-145.45;100.00;64080.75;5083121;28;20377;-81
2023/04/21 03:30:21;;;;;;;725.23;174.97;;;;;;;-145.45;100.00;64080.75;5026316;27;25115;-82
2023/04/21 03:32:46;;;;;;;726.97;176.88;;;;;;;-145.45;100.00;64080.75;5117353;27;20372;-81
2023/04/21 03:35:12;;;;;;;728.75;177.73;;;;;;;-145.45;100.00;64080.75;5120461;27;20385;-81
2023/04/21 03:37:37;;;;;;;731.50;177.90;;;;;;;-145.45;100.00;64080.75;5123154;27;20388;-81
2023/04/21 03:40:07;;;;;;;733.17;179.80;;;;;;;-145.45;100.00;64080.75;5121935;27;20409;-81
2023/04/21 03:42:33;;;;;;;739.35;183.57;;;;;;;-145.45;100.00;64080.75;5124649;27;20480;-81
2023/04/21 03:45:04;;;;;;;739.20;183.93;;;;;;;-145.45;100.00;64080.75;5122284;27;20384;-83
2023/04/21 03:47:29;;;;;;;744.83;183.73;;;;;;;-145.45;100.00;64080.75;5133468;27;20383;-82
2023/04/21 03:49:55;;;;;;;758.22;193.30;;;;;;;-145.45;100.00;64080.75;5131159;27;20458;-81
2023/04/21 03:52:20;;;;;;;767.00;199.70;;;;;;;-145.45;100.00;64080.75;5126944;28;20394;-82
2023/04/21 03:54:46;;;;;;;762.23;197.60;;;;;;;-145.45;100.00;64080.75;5125309;28;20392;-82
2023/04/21 03:57:11;;;;;;;758.35;193.00;;;;;;;-145.45;100.00;64080.75;5119068;27;20415;-82
2023/04/21 03:59:37;;;;;;;753.57;188.80;;;;;;;-145.45;100.00;64080.75;5124441;28;20374;-81
2023/04/21 04:02:02;;;;;;;751.13;187.15;;;;;;;-145.45;100.00;64080.75;5114369;28;20491;-81
2023/04/21 04:04:28;;;;;;;757.87;189.57;;;;;;;-145.45;100.00;64080.75;5130888;28;20370;-82
2023/04/21 04:06:53;;;;;;;749.97;184.80;;;;;;;-145.45;100.00;64080.75;5133263;27;20383;-82
2023/04/21 04:09:19;;;;;;;740.88;178.27;;;;;;;-145.45;100.00;64080.75;5121895;28;20386;-81
2023/04/21 04:11:44;;;;;;;745.30;180.93;;;;;;;-145.45;100.00;64080.75;5129221;28;20378;-81
2023/04/21 04:14:10;;;;;;;749.90;181.60;;;;;;;-145.45;100.00;64080.75;5117316;28;20383;-81
2023/04/21 04:16:36;;;;;;;745.58;181.55;;;;;;;-145.45;100.00;64080.75;5116638;28;20374;-82
2023/04/21 04:19:02;;;;;;;751.33;184.43;;;;;;;-145.45;100.00;64080.75;5121761;28;20448;-82
2023/04/21 04:21:28;;;;;;;750.17;184.07;;;;;;;-145.45;100.00;64080.75;5123732;28;20789;-81
2023/04/21 04:23:54;;;;;;;741.90;177.37;;;;;;;-145.45;100.00;64080.75;5118632;27;20857;-81
2023/04/21 04:26:23;;;;;;;732.15;175.13;;;;;;;-145.45;100.00;64080.75;5123387;28;20387;-81
2023/04/21 04:28:55;;;;;;;743.72;176.82;;;;;;;-145.45;100.00;64080.75;5117573;28;20390;-81
2023/04/21 04:31:24;;;;;;;739.57;175.90;;;;;;;-145.45;100.00;64080.75;5117737;28;20434;-82
2023/04/21 04:33:50;;;;;;;744.28;177.45;;;;;;;-145.45;100.00;64080.75;5120560;27;20399;-82
2023/04/21 04:36:16;;;;;;;752.45;178.10;;;;;;;-145.45;100.00;64080.75;5122673;27;20471;-82
2023/04/21 04:38:41;;;;;;;741.25;176.20;;;;;;;-145.45;100.00;64080.75;5135102;27;20398;-82
2023/04/21 04:41:07;;;;;;;745.33;177.00;;;;;;;-145.45;100.00;64080.75;5144362;27;20570;-81
2023/04/21 04:43:35;;;;;;;741.67;176.40;;;;;;;-145.45;100.00;64080.75;5147399;27;20414;-82
2023/04/21 04:46:04;;;;;;;748.85;178.30;;;;;;;-145.45;100.00;64080.75;5137666;27;20381;-82
2023/04/21 04:48:30;;;;;;;749.65;178.15;;;;;;;-145.45;100.00;64080.75;5133361;27;20430;-83
2023/04/21 04:50:56;;;;;;;752.10;179.65;;;;;;;-145.45;100.00;64080.75;5139416;27;20911;-81
2023/04/21 04:53:22;;;;;;;742.35;177.13;;;;;;;-145.45;100.00;64080.75;5123966;27;20395;-83
2023/04/21 04:55:47;;;;;;;747.08;178.80;;;;;;;-145.45;100.00;64080.75;5124910;27;20375;-81
2023/04/21 04:58:13;;;;;;;754.13;180.10;;;;;;;-145.45;100.00;64080.75;5136506;27;20369;-82
2023/04/21 05:00:38;;;;;;;749.90;179.52;;;;;;;-145.45;100.00;64080.75;5133405;27;20391;-82
2023/04/21 05:03:04;;;;;;;755.00;180.17;;;;;;;-145.45;100.00;64080.75;5125389;27;20382;-82
2023/04/21 05:05:30;;;;;;;747.63;178.40;;;;;;;-145.45;100.00;64080.75;5126780;27;20410;-82
2023/04/21 05:07:56;;;;;;;745.87;178.33;;;;;;;-145.45;100.00;64080.75;5122113;27;20368;-82
2023/04/21 05:10:22;;;;;;;750.88;178.95;;;;;;;-145.45;100.00;64080.75;5118128;28;20403;-83
2023/04/21 05:12:47;;;;;;;750.63;179.77;;;;;;;-145.45;100.00;64080.75;5117749;27;20581;-82
2023/04/21 05:15:13;;;;;;;753.80;180.50;;;;;;;-145.45;100.00;64080.75;5117147;28;20403;-82
2023/04/21 05:17:38;;;;;;;751.30;179.07;;;;;;;-145.45;100.00;64080.75;5116093;28;20701;-81
2023/04/21 05:20:05;;;;;;;753.17;180.40;;;;;;;-145.45;100.00;64080.75;5116067;28;20400;-81
2023/04/21 05:22:31;;;;;;;754.65;181.27;;;;;;;-145.45;100.00;64080.75;5114741;27;20387;-81
2023/04/21 05:24:56;;;;;;;756.05;181.20;;;;;;;-145.45;100.00;64080.75;5114066;28;20372;-81
2023/04/21 05:27:22;;;;;;;750.97;180.13;;;;;;;-145.45;100.00;64080.75;5115643;28;20942;-81
2023/04/21 05:29:47;;;;;;;742.37;176.93;;;;;;;-145.45;100.00;64080.75;5121939;27;20516;-82
2023/04/21 05:32:13;;;;;;;747.87;179.53;;;;;;;-145.45;100.00;64080.75;5120266;27;20368;-82
2023/04/21 05:34:38;;;;;;;747.03;179.93;;;;;;;-145.45;100.00;64080.75;5115302;27;20410;-83
2023/04/21 05:37:04;;;;;;;756.50;182.10;;;;;;;-145.45;100.00;64080.75;5126443;28;20386;-80
2023/04/21 05:39:29;;;;;;;756.50;182.47;;;;;;;-145.45;100.00;64080.75;5132643;28;20376;-81
2023/04/21 05:41:55;;;;;;;754.97;181.57;;;;;;;-145.45;100.00;64080.75;5133644;27;20439;-81
2023/04/21 05:44:21;;;;;;;758.08;182.82;;;;;;;-145.45;100.00;64080.75;5133132;27;20378;-81
2023/04/21 05:46:46;;;;;;;761.10;183.67;;;;;;;-145.45;100.00;64080.75;5117860;27;20367;-82
2023/04/21 05:49:12;;;;;;;758.03;183.57;;;;;;;-145.45;100.00;64080.75;5115847;27;20537;-81
2023/04/21 05:51:37;;;;;;;760.92;184.60;;;;;;;-145.45;100.00;64080.75;5116757;28;20387;-81
2023/04/21 05:54:03;;;;;;;768.17;188.07;;;;;;;-145.45;100.00;64080.75;5107951;27;20370;-80
2023/04/21 05:56:29;;;;;;;778.03;193.63;;;;;;;-145.45;100.00;64080.75;5133284;27;20376;-84
2023/04/21 05:58:54;;;;;;;761.97;182.20;;;;;;;-145.45;100.00;64080.75;5119156;28;20380;-80
2023/04/21 06:01:20;;;;;;;756.60;181.43;;;;;;;-145.45;100.00;64080.75;5121066;28;20389;-82
2023/04/21 06:03:48;;;;;;;761.25;183.07;;;;;;;-145.45;100.00;64080.75;5116899;28;20380;-80
2023/04/21 06:06:14;;;;;;;766.60;184.73;;;;;;;-145.45;100.00;64080.75;5116373;28;20379;-83
2023/04/21 06:08:40;;;;;;;764.90;183.67;;;;;;;-145.45;100.00;64080.75;5116321;27;20510;-82
2023/04/21 06:11:05;;;;;;;771.90;186.23;;;;;;;-145.45;100.00;64080.75;5115360;27;20521;-81
2023/04/21 06:13:31;;;;;;;767.30;184.67;;;;;;;-145.45;100.00;64080.75;5112511;27;20955;-82
2023/04/21 06:15:56;;;;;;;763.67;184.95;;;;;;;-145.45;100.00;64080.75;5111601;27;20439;-80
2023/04/21 06:18:23;;;;;;;762.10;184.23;;;;;;;-145.45;100.00;64080.75;5120921;27;20397;-81
2023/04/21 06:20:51;;;;;;;773.50;187.80;;;;;;;-145.45;100.00;64080.75;5115444;27;20383;-81
2023/04/21 06:23:16;;;;;;;776.42;188.32;;;;;;;-145.45;100.00;64080.75;5099044;27;20811;-81
2023/04/21 06:25:42;;;;;;;687.22;162.00;;;;;;;-145.45;100.00;64080.75;5121469;27;20395;-83
2023/04/21 06:28:07;;;;;;;682.93;161.63;;;;;;;-145.45;100.00;64080.75;5117526;27;20407;-80
2023/04/21 06:30:33;;;;;;;683.97;161.88;;;;;;;-145.45;100.00;64080.75;5116545;27;20411;-81
2023/04/21 06:32:58;;;;;;;680.00;160.57;;;;;;;-145.45;100.00;64080.75;5119050;27;20896;-82
2023/04/21 06:35:24;;;;;;;672.03;159.52;;;;;;;-145.45;100.00;64080.75;5122318;27;20385;-82
2023/04/21 06:37:50;;;;;;;646.15;154.38;;;;;;;-145.45;100.00;64080.75;5119395;27;20381;-83
2023/04/21 06:40:16;;;;;;;639.50;152.50;;;;;;;-145.45;100.00;64080.75;5124212;27;20368;-81
2023/04/21 06:42:41;;;;;;;632.00;151.00;;;;;;;-145.45;100.00;64080.75;5124988;27;20525;-82
2023/04/21 06:45:07;;;;;;;636.83;152.50;;;;;;;-145.45;100.00;64080.75;5126071;27;20389;-81
2023/04/21 06:47:33;;;;;;;645.63;154.05;;;;;;;-145.45;100.00;64080.75;5125530;27;20366;-82
2023/04/21 06:49:58;;;;;;;671.50;159.77;;;;;;;-145.45;100.00;64080.75;5127397;27;20405;-83
2023/04/21 06:52:24;;;;;;;698.00;166.23;;;;;;;-145.45;100.00;64080.75;5127903;27;20381;-81
2023/04/21 06:54:49;;;;;;;700.00;166.17;;;;;;;-145.45;100.00;64080.75;5125616;27;20379;-82
2023/04/21 06:57:16;;;;;;;704.10;167.17;;;;;;;-145.45;100.00;64080.75;5131784;27;20366;-81
2023/04/21 06:59:41;;;;;;;662.10;157.02;;;;;;;-145.45;100.00;64080.75;5121600;27;20379;-81
2023/04/21 07:02:07;;;;;;;657.50;156.50;;;;;;;-145.45;100.00;64080.75;5125894;27;20385;-81
2023/04/21 07:04:32;;;;;;;653.03;155.80;;;;;;;-145.45;100.00;64080.75;5125655;27;20922;-81
2023/04/21 07:06:58;;;;;;;676.27;175.80;;;;;;;-145.45;100.00;64080.75;5126576;27;20373;-81
2023/04/21 07:09:23;;;;;;;674.25;160.40;;;;;;;-145.45;100.00;64080.75;5132459;27;20384;-80
2023/04/21 07:11:50;;;;;;;678.97;160.87;;;;;;;-145.45;100.00;64080.75;5134464;27;20370;-80
2023/04/21 07:14:15;;;;;;;738.10;178.10;;;;;;;-145.45;100.00;64080.75;5134859;27;20369;-81
2023/04/21 07:16:41;;;;;;;831.83;206.77;;;;;;;-145.45;100.00;64080.75;5134357;27;20373;-82
2023/04/21 07:19:06;;;;;;;851.75;213.05;;;;;;;-145.45;100.00;64080.75;5135489;27;20358;-82
2023/04/21 07:21:35;;;;;;;864.83;217.57;;;;;;;-145.45;100.00;64080.75;5136275;27;20370;-81
2023/04/21 07:24:01;;;;;;;856.00;214.77;;;;;;;-145.45;100.00;64080.75;5133907;27;20765;-81
2023/04/21 07:26:27;;;;;;;790.17;194.23;;;;;;;-145.45;100.00;64080.75;5136540;27;20385;-80
2023/04/21 07:28:54;;;;;;;795.22;194.80;;;;;;;-145.45;100.00;64080.75;5145578;27;20730;-79
2023/04/21 07:31:20;;;;;;;791.10;193.65;;;;;;;-145.45;100.00;64080.75;5139418;27;20404;-80
2023/04/21 07:33:46;;;;;;;789.95;194.32;;;;;;;-145.45;100.00;64080.75;5136992;27;20378;-79
2023/04/21 07:36:11;;;;;;;790.70;193.68;;;;;;;-145.45;100.00;64080.75;5129138;27;20375;-82
2023/04/21 07:38:37;;;;;;;773.70;188.83;;;;;;;-145.45;100.00;64080.75;5132117;27;20370;-80
2023/04/21 07:41:04;;;;;;;744.08;178.73;;;;;;;-145.45;100.00;64080.75;5134511;27;20366;-82
2023/04/21 07:43:30;;;;;;;737.97;178.15;;;;;;;-145.45;100.00;64080.75;5134737;27;20726;-80
2023/04/21 07:45:56;;;;;;;743.80;181.27;;;;;;;-145.45;100.00;64080.75;5140737;27;20408;-81
2023/04/21 07:48:22;;;;;;;729.35;175.18;;;;;;;-145.45;100.00;64080.75;5140980;27;20466;-80
2023/04/21 07:50:49;;;;;;;700.80;167.80;;;;;;;-145.45;100.00;64080.75;5134420;27;20909;-80
2023/04/21 07:53:15;;;;;;;694.63;166.60;;;;;;;-145.45;100.00;64080.75;5134625;27;20515;-80
2023/04/21 07:55:41;;;;;;;691.38;167.18;;;;;;;-145.45;100.00;64080.75;5134203;27;20378;-80
2023/04/21 07:58:07;;;;;;;697.27;167.73;;;;;;;-145.45;100.00;64080.75;5134463;27;20905;-80
2023/04/21 08:00:33;;;;;;;704.30;168.88;;;;;;;-145.45;100.00;64080.75;5135851;27;20996;-82
2023/04/21 08:02:58;;;;;;;749.07;183.27;;;;;;;-145.45;100.00;64080.75;5134128;28;20386;-82
2023/04/21 08:05:24;;;;;;;992.63;279.95;;;;;;;-145.45;100.00;64080.75;5134927;27;20381;-80
2023/04/21 08:07:50;;;;;;;994.65;279.23;;;;;;;-145.45;100.00;64080.75;5139475;27;20370;-81
2023/04/21 08:10:16;;;;;;;1010.20;289.57;;;;;;;-145.45;100.00;64080.75;5140509;27;20929;-81
2023/04/21 08:12:42;;;;;;;1005.95;286.33;;;;;;;-145.45;100.00;64080.75;5141009;27;20901;-80
2023/04/21 08:15:11;;;;;;;992.85;278.80;;;;;;;-145.45;100.00;64080.75;5138547;27;20385;-81
2023/04/21 08:17:37;;;;;;;985.92;275.25;;;;;;;-145.45;100.00;64080.75;5140624;27;20370;-82
2023/04/21 08:20:03;;;;;;;978.65;270.88;;;;;;;-145.45;100.00;64080.75;5139576;27;20384;-80
2023/04/21 08:22:29;;;;;;;970.78;267.17;;;;;;;-145.45;100.00;64080.75;5138926;27;20374;-80
2023/04/21 08:24:55;;;;;;;923.63;247.07;;;;;;;-145.45;100.00;64080.75;5138879;27;20687;-80
2023/04/21 08:27:20;;;;;;;913.63;242.88;;;;;;;-145.45;100.00;64080.75;5139931;27;20849;-80
2023/04/21 08:29:46;;;;;;;886.30;232.40;;;;;;;-145.45;100.00;64080.75;5138603;27;20386;-79
2023/04/21 08:32:12;;;;;;;888.30;232.15;;;;;;;-145.45;100.00;64080.75;5139186;27;20381;-80
2023/04/21 08:34:37;;;;;;;888.05;231.82;;;;;;;-145.45;100.00;64080.75;5137736;27;20373;-79
2023/04/21 08:37:03;;;;;;;871.97;226.80;;;;;;;-145.45;100.00;64080.75;5137223;27;20444;-80
2023/04/21 08:39:28;;;;;;;868.33;225.80;;;;;;;-145.45;100.00;64080.75;5139717;27;20831;-81
2023/04/21 08:41:55;;;;;;;859.60;222.63;;;;;;;-145.45;100.00;64080.75;5138265;27;20370;-82
2023/04/21 08:44:20;;;;;;;866.38;224.68;;;;;;;-145.45;100.00;64080.75;5139858;27;20484;-80
2023/04/21 08:46:51;;;;;;;862.95;224.10;;;;;;;-145.45;100.00;64080.75;5139700;27;20374;-81
2023/04/21 08:49:19;;;;;;;866.85;225.45;;;;;;;-145.45;100.00;64080.75;5140089;27;20398;-79
2023/04/21 08:51:45;;;;;;;859.83;221.87;;;;;;;-145.45;100.00;64080.75;5141850;27;20444;-80
2023/04/21 08:54:11;;;;;;;851.33;217.75;;;;;;;-145.45;100.00;64080.75;5140839;27;20439;-80
2023/04/21 08:56:39;;;;;;;844.80;216.63;;;;;;;-145.45;100.00;64080.75;5150566;27;20366;-79
2023/04/21 08:59:04;;;;;;;846.15;217.95;;;;;;;-145.45;100.00;64080.75;5155397;27;20370;-80
2023/04/21 09:01:30;;;;;;;851.20;218.97;;;;;;;-145.45;100.00;64080.75;5153162;27;20366;-80
2023/04/21 09:04:15;;;;;;;854.72;219.35;;;;;;;-145.45;100.00;64080.75;5144858;27;20373;-80
2023/04/21 09:06:45;;;;;;;847.97;216.77;;;;;;;-145.45;100.00;64080.75;5139022;27;20791;-80
2023/04/21 09:09:11;;;;;;;849.13;217.20;;;;;;;-145.45;100.00;64080.75;5137591;27;20394;-81
2023/04/21 09:11:37;;;;;;;846.60;215.43;;;;;;;-145.45;100.00;64080.75;5140724;27;20469;-81
2023/04/21 09:14:02;;;;;;;834.60;212.73;;;;;;;-145.45;100.00;64080.75;5129425;27;20457;-80
2023/04/21 09:16:34;;;;;;;841.97;215.32;;;;;;;-145.45;100.00;64080.75;5130345;27;20372;-81
2023/04/21 09:19:00;;;;;;;837.53;213.00;;;;;;;-145.45;100.00;64080.75;5122931;28;20379;-81
2023/04/21 09:21:28;;;;;;;836.15;212.63;;;;;;;-145.45;100.00;64080.75;5132751;27;20442;-82
2023/04/21 09:23:57;;;;;;;836.83;213.10;;;;;;;-145.45;100.00;64080.75;5123994;27;20454;-81
2023/04/21 09:26:22;;;;;;;842.38;214.95;;;;;;;-145.45;100.00;64080.75;5124926;27;20380;-80
2023/04/21 09:28:50;;;;;;;846.65;217.20;;;;;;;-145.45;100.00;64080.75;5123352;27;20382;-81
2023/04/21 09:31:24;;;;;;;850.50;218.35;;;;;;;-145.45;100.00;64080.75;5125763;27;20859;-80
2023/04/21 09:33:53;;;;;;;854.67;219.47;;;;;;;-145.45;100.00;64080.75;5129404;27;20389;-82
2023/04/21 09:36:25;;;;;;;857.70;221.15;;;;;;;-145.45;100.00;64080.75;5141646;27;20393;-80
2023/04/21 09:39:01;;;;;;;847.15;216.70;;;;;;;-145.45;100.00;64080.75;5131475;27;20406;-80
2023/04/21 09:41:27;;;;;;;839.45;214.73;;;;;;;-145.45;100.00;64080.75;5138830;27;20382;-82
2023/04/21 09:43:52;;;;;;;844.05;215.55;;;;;;;-145.45;100.00;64080.75;5140319;27;20373;-81
2023/04/21 09:46:20;;;;;;;811.73;203.87;;;;;;;-145.45;100.00;64080.75;5129008;27;20963;-81
2023/04/21 09:48:46;;;;;;;825.70;209.70;;;;;;;-145.45;100.00;64080.75;5125546;27;20393;-81
2023/04/21 09:51:13;;;;;;;807.70;203.98;;;;;;;-145.45;100.00;64080.75;5123620;27;20507;-82
2023/04/21 09:53:40;;;;;;;795.95;198.85;;;;;;;-145.45;100.00;64080.75;5122466;27;20399;-79
2023/04/21 09:56:11;;;;;;;802.90;201.70;;;;;;;-145.45;100.00;64080.75;5121155;27;20808;-80
2023/04/21 09:58:42;;;;;;;814.47;206.55;;;;;;;-145.45;100.00;64080.75;5118027;27;20387;-80
2023/04/21 10:01:09;;;;;;;818.72;207.32;;;;;;;-145.45;100.00;64080.75;5114564;27;20497;-80
2023/04/21 10:03:38;;;;;;;823.22;209.20;;;;;;;-145.45;100.00;64080.75;5122327;27;20399;-80
2023/04/21 10:06:04;;;;;;;825.25;209.18;;;;;;;-145.45;100.00;64080.75;5117968;27;20442;-80
2023/04/21 10:08:30;;;;;;;813.67;205.00;;;;;;;-145.45;100.00;64080.75;5117052;27;20500;-79
2023/04/21 10:10:57;;;;;;;817.42;206.40;;;;;;;-145.45;100.00;64080.75;5115615;27;20550;-79
2023/04/21 10:13:23;;;;;;;819.03;208.18;;;;;;;-145.45;100.00;64080.75;5114676;27;20394;-80
2023/04/21 10:16:01;;;;;;;841.53;216.65;;;;;;;-145.45;100.00;64080.75;5124554;27;21080;-81
2023/04/21 10:18:28;;;;;;;868.55;226.60;;;;;;;-145.45;100.00;64080.75;5119919;27;20481;-82
2023/04/21 10:21:07;;;;;;;863.93;225.87;;;;;;;-145.45;100.00;64080.75;5117467;27;20375;-81
2023/04/21 10:23:38;;;;;;;879.43;230.47;;;;;;;-145.45;100.00;64080.75;5128262;27;20390;-80
2023/04/21 10:26:12;;;;;;;869.13;229.10;;;;;;;-145.45;100.00;64080.75;5116517;28;20388;-78
2023/04/21 10:28:44;;;;;;;875.10;231.48;;;;;;;-145.45;100.00;64080.75;5122037;27;20475;-80
2023/04/21 10:31:22;;;;;;;884.35;233.50;;;;;;;-145.45;100.00;64080.75;5120091;27;20404;-79
2023/04/21 10:34:10;;;;;;;890.60;238.07;;;;;;;-145.45;100.00;64080.75;5129087;27;20453;-80
2023/04/21 10:36:45;;;;;;;907.63;245.47;;;;;;;-145.45;100.00;64080.75;5122641;27;20383;-80